sensor_id;sensor_type;location;lat;lon;timestamp;pressure;altitude;pressure_sealevel;temperature;humidity
60852;BME280;48553;50.766;2.900;2024-03-06T00:00:33;100992.06;;;6.62;100.00
60852;BME280;48553;50.766;2.900;2024-03-06T00:03:34;101000.53;;;6.61;100.00
60852;BME280;48553;50.766;2.900;2024-03-06T00:06:34;100996.19;;;6.60;100.00
60852;BME280;48553;50.766;2.900;2024-03-06T00:09:34;101005.16;;;6.60;100.00
60852;BME280;48553;50.766;2.900;2024-03-06T00:12:36;101002.44;;;6.60;100.00
60852;BME280;48553;50.766;2.900;2024-03-06T00:15:37;101009.50;;;6.61;100.00
60852;BME280;48553;50.766;2.900;2024-03-06T00:18:37;101003.84;;;6.58;100.00
60852;BME280;48553;50.766;2.900;2024-03-06T00:21:38;101005.16;;;6.60;100.00
60852;BME280;48553;50.766;2.900;2024-03-06T00:24:38;101006.00;;;6.61;100.00
60852;BME280;48553;50.766;2.900;2024-03-06T00:27:38;101004.66;;;6.58;100.00
60852;BME280;48553;50.766;2.900;2024-03-06T00:30:39;101004.34;;;6.60;100.00
60852;BME280;48553;50.766;2.900;2024-03-06T00:33:40;101007.38;;;6.58;100.00
60852;BME280;48553;50.766;2.900;2024-03-06T00:36:42;101011.72;;;6.59;100.00
60852;BME280;48553;50.766;2.900;2024-03-06T00:39:43;101008.78;;;6.56;100.00
60852;BME280;48553;50.766;2.900;2024-03-06T00:42:44;101015.88;;;6.57;100.00
60852;BME280;48553;50.766;2.900;2024-03-06T00:45:45;101013.16;;;6.57;100.00
60852;BME280;48553;50.766;2.900;2024-03-06T00:48:46;101012.31;;;6.56;100.00
60852;BME280;48553;50.766;2.900;2024-03-06T00:51:46;101008.00;;;6.55;100.00
60852;BME280;48553;50.766;2.900;2024-03-06T00:54:46;101011.22;;;6.57;100.00
60852;BME280;48553;50.766;2.900;2024-03-06T00:57:47;101008.78;;;6.56;100.00
60852;BME280;48553;50.766;2.900;2024-03-06T01:00:47;101014.25;;;6.56;100.00
60852;BME280;48553;50.766;2.900;2024-03-06T01:03:48;101015.38;;;6.55;100.00
60852;BME280;48553;50.766;2.900;2024-03-06T01:06:48;101016.44;;;6.54;100.00
60852;BME280;48553;50.766;2.900;2024-03-06T01:09:49;101019.19;;;6.54;100.00
60852;BME280;48553;50.766;2.900;2024-03-06T01:12:49;101026.84;;;6.52;100.00
60852;BME280;48553;50.766;2.900;2024-03-06T01:15:51;101024.63;;;6.54;100.00
60852;BME280;48553;50.766;2.900;2024-03-06T01:18:52;101023.03;;;6.53;100.00
60852;BME280;48553;50.766;2.900;2024-03-06T01:21:52;101029.56;;;6.52;100.00
60852;BME280;48553;50.766;2.900;2024-03-06T01:24:52;101032.00;;;6.53;100.00
60852;BME280;48553;50.766;2.900;2024-03-06T01:27:53;101029.88;;;6.50;100.00
60852;BME280;48553;50.766;2.900;2024-03-06T01:30:53;101024.44;;;6.50;100.00
60852;BME280;48553;50.766;2.900;2024-03-06T01:33:54;101030.16;;;6.48;100.00
60852;BME280;48553;50.766;2.900;2024-03-06T01:36:55;101035.31;;;6.50;100.00
60852;BME280;48553;50.766;2.900;2024-03-06T01:39:55;101032.59;;;6.50;100.00
60852;BME280;48553;50.766;2.900;2024-03-06T01:42:56;101044.00;;;6.52;100.00
60852;BME280;48553;50.766;2.900;2024-03-06T01:45:56;101042.97;;;6.48;100.00
60852;BME280;48553;50.766;2.900;2024-03-06T01:48:57;101038.63;;;6.47;100.00
60852;BME280;48553;50.766;2.900;2024-03-06T01:51:59;101037.53;;;6.48;100.00
60852;BME280;48553;50.766;2.900;2024-03-06T01:55:00;101041.34;;;6.47;100.00
60852;BME280;48553;50.766;2.900;2024-03-06T01:58:00;101047.91;;;6.46;100.00
60852;BME280;48553;50.766;2.900;2024-03-06T02:01:01;101051.75;;;6.45;100.00
60852;BME280;48553;50.766;2.900;2024-03-06T02:04:02;101058.00;;;6.45;100.00
60852;BME280;48553;50.766;2.900;2024-03-06T02:07:03;101054.50;;;6.45;100.00
60852;BME280;48553;50.766;2.900;2024-03-06T02:10:08;101056.09;;;6.46;100.00
60852;BME280;48553;50.766;2.900;2024-03-06T02:13:10;101056.69;;;6.43;100.00
60852;BME280;48553;50.766;2.900;2024-03-06T02:16:10;101058.31;;;6.44;100.00
60852;BME280;48553;50.766;2.900;2024-03-06T02:19:11;101059.09;;;6.44;100.00
60852;BME280;48553;50.766;2.900;2024-03-06T02:22:11;101052.34;;;6.42;100.00
60852;BME280;48553;50.766;2.900;2024-03-06T02:25:12;101055.88;;;6.42;100.00
60852;BME280;48553;50.766;2.900;2024-03-06T02:28:13;101053.47;;;6.41;100.00
60852;BME280;48553;50.766;2.900;2024-03-06T02:31:13;101072.53;;;6.41;100.00
60852;BME280;48553;50.766;2.900;2024-03-06T02:34:14;101066.56;;;6.39;100.00
60852;BME280;48553;50.766;2.900;2024-03-06T02:37:15;101063.53;;;6.40;100.00
60852;BME280;48553;50.766;2.900;2024-03-06T02:40:15;101062.22;;;6.38;100.00
60852;BME280;48553;50.766;2.900;2024-03-06T02:43:16;101056.25;;;6.36;100.00
60852;BME280;48553;50.766;2.900;2024-03-06T02:46:16;101063.94;;;6.34;100.00
60852;BME280;48553;50.766;2.900;2024-03-06T02:49:17;101061.50;;;6.32;100.00
60852;BME280;48553;50.766;2.900;2024-03-06T02:52:18;101064.22;;;6.32;100.00
60852;BME280;48553;50.766;2.900;2024-03-06T02:55:19;101067.25;;;6.31;100.00
60852;BME280;48553;50.766;2.900;2024-03-06T02:58:19;101062.41;;;6.27;100.00
60852;BME280;48553;50.766;2.900;2024-03-06T03:01:20;101063.22;;;6.28;100.00
60852;BME280;48553;50.766;2.900;2024-03-06T03:04:20;101059.97;;;6.26;100.00
60852;BME280;48553;50.766;2.900;2024-03-06T03:07:20;101056.75;;;6.24;100.00
60852;BME280;48553;50.766;2.900;2024-03-06T03:10:21;101063.31;;;6.23;100.00
60852;BME280;48553;50.766;2.900;2024-03-06T03:13:21;101062.78;;;6.21;100.00
60852;BME280;48553;50.766;2.900;2024-03-06T03:16:22;101063.06;;;6.19;100.00
60852;BME280;48553;50.766;2.900;2024-03-06T03:19:22;101069.66;;;6.18;100.00
60852;BME280;48553;50.766;2.900;2024-03-06T03:22:23;101068.31;;;6.16;100.00
60852;BME280;48553;50.766;2.900;2024-03-06T03:25:23;101068.31;;;6.16;100.00
60852;BME280;48553;50.766;2.900;2024-03-06T03:28:23;101077.06;;;6.13;100.00
60852;BME280;48553;50.766;2.900;2024-03-06T03:31:24;101076.25;;;6.12;100.00
60852;BME280;48553;50.766;2.900;2024-03-06T03:34:24;101077.66;;;6.10;100.00
60852;BME280;48553;50.766;2.900;2024-03-06T03:37:25;101069.81;;;6.08;100.00
60852;BME280;48553;50.766;2.900;2024-03-06T03:40:25;101066.28;;;6.07;100.00
60852;BME280;48553;50.766;2.900;2024-03-06T03:43:26;101072.84;;;6.06;100.00
60852;BME280;48553;50.766;2.900;2024-03-06T03:46:26;101071.72;;;6.07;100.00
60852;BME280;48553;50.766;2.900;2024-03-06T03:49:27;101081.81;;;6.07;100.00
60852;BME280;48553;50.766;2.900;2024-03-06T03:52:27;101081.88;;;6.02;100.00
60852;BME280;48553;50.766;2.900;2024-03-06T03:55:28;101071.28;;;6.00;100.00
60852;BME280;48553;50.766;2.900;2024-03-06T03:58:28;101080.53;;;5.99;100.00
60852;BME280;48553;50.766;2.900;2024-03-06T04:01:29;101076.75;;;6.00;100.00
60852;BME280;48553;50.766;2.900;2024-03-06T04:04:29;101076.81;;;5.95;100.00
60852;BME280;48553;50.766;2.900;2024-03-06T04:07:29;101084.16;;;5.95;100.00
60852;BME280;48553;50.766;2.900;2024-03-06T04:10:30;101078.19;;;5.93;100.00
60852;BME280;48553;50.766;2.900;2024-03-06T04:13:35;101086.34;;;5.93;100.00
60852;BME280;48553;50.766;2.900;2024-03-06T04:16:37;101083.63;;;5.93;100.00
60852;BME280;48553;50.766;2.900;2024-03-06T04:19:38;101090.16;;;5.92;100.00
60852;BME280;48553;50.766;2.900;2024-03-06T04:22:39;101090.16;;;5.92;100.00
60852;BME280;48553;50.766;2.900;2024-03-06T04:25:40;101099.44;;;5.91;100.00
60852;BME280;48553;50.766;2.900;2024-03-06T04:28:41;101088.34;;;5.87;100.00
60852;BME280;48553;50.766;2.900;2024-03-06T04:31:41;101095.38;;;5.88;100.00
60852;BME280;48553;50.766;2.900;2024-03-06T04:34:41;101090.25;;;5.86;100.00
60852;BME280;48553;50.766;2.900;2024-03-06T04:37:42;101100.09;;;5.82;100.00
60852;BME280;48553;50.766;2.900;2024-03-06T04:40:43;101104.41;;;5.83;100.00
60852;BME280;48553;50.766;2.900;2024-03-06T04:43:45;101115.91;;;5.80;100.00
60852;BME280;48553;50.766;2.900;2024-03-06T04:46:45;101119.75;;;5.79;100.00
60852;BME280;48553;50.766;2.900;2024-03-06T04:49:45;101110.03;;;5.73;100.00
60852;BME280;48553;50.766;2.900;2024-03-06T04:52:46;101120.91;;;5.73;100.00
60852;BME280;48553;50.766;2.900;2024-03-06T04:55:47;101116.88;;;5.71;100.00
60852;BME280;48553;50.766;2.900;2024-03-06T04:58:47;101134.78;;;5.72;100.00
60852;BME280;48553;50.766;2.900;2024-03-06T05:01:48;101137.31;;;5.68;100.00
60852;BME280;48553;50.766;2.900;2024-03-06T05:04:48;101140.03;;;5.68;100.00
60852;BME280;48553;50.766;2.900;2024-03-06T05:07:49;101135.16;;;5.65;100.00
60852;BME280;48553;50.766;2.900;2024-03-06T05:10:49;101136.25;;;5.64;100.00
60852;BME280;48553;50.766;2.900;2024-03-06T05:13:50;101134.13;;;5.61;100.00
60852;BME280;48553;50.766;2.900;2024-03-06T05:16:50;101146.91;;;5.60;100.00
60852;BME280;48553;50.766;2.900;2024-03-06T05:19:51;101145.59;;;5.58;100.00
60852;BME280;48553;50.766;2.900;2024-03-06T05:22:51;101149.69;;;5.55;100.00
60852;BME280;48553;50.766;2.900;2024-03-06T05:25:52;101157.84;;;5.55;100.00
60852;BME280;48553;50.766;2.900;2024-03-06T05:28:52;101166.28;;;5.54;100.00
60852;BME280;48553;50.766;2.900;2024-03-06T05:31:52;101159.25;;;5.53;100.00
60852;BME280;48553;50.766;2.900;2024-03-06T05:34:53;101153.81;;;5.53;100.00
60852;BME280;48553;50.766;2.900;2024-03-06T05:37:54;101158.44;;;5.52;100.00
60852;BME280;48553;50.766;2.900;2024-03-06T05:40:54;101162.25;;;5.51;100.00
60852;BME280;48553;50.766;2.900;2024-03-06T05:43:55;101157.13;;;5.50;100.00
60852;BME280;48553;50.766;2.900;2024-03-06T05:46:57;101168.00;;;5.50;100.00
60852;BME280;48553;50.766;2.900;2024-03-06T05:49:58;101176.16;;;5.50;100.00
60852;BME280;48553;50.766;2.900;2024-03-06T05:52:58;101180.47;;;5.51;100.00
60852;BME280;48553;50.766;2.900;2024-03-06T05:55:58;101178.88;;;5.50;100.00
60852;BME280;48553;50.766;2.900;2024-03-06T05:58:59;101190.53;;;5.50;100.00
60852;BME280;48553;50.766;2.900;2024-03-06T06:02:01;101195.19;;;5.50;100.00
60852;BME280;48553;50.766;2.900;2024-03-06T06:05:04;101195.97;;;5.50;100.00
60852;BME280;48553;50.766;2.900;2024-03-06T06:08:05;101207.94;;;5.49;100.00
60852;BME280;48553;50.766;2.900;2024-03-06T06:11:06;101207.13;;;5.49;100.00
60852;BME280;48553;50.766;2.900;2024-03-06T06:14:06;101208.78;;;5.50;100.00
60852;BME280;48553;50.766;2.900;2024-03-06T06:17:07;101213.63;;;5.53;100.00
60852;BME280;48553;50.766;2.900;2024-03-06T06:20:07;101221.25;;;5.51;100.00
60852;BME280;48553;50.766;2.900;2024-03-06T06:23:14;101220.13;;;5.52;100.00
60852;BME280;48553;50.766;2.900;2024-03-06T06:26:15;101222.38;;;5.50;100.00
60852;BME280;48553;50.766;2.900;2024-03-06T06:29:15;101229.94;;;5.53;100.00
60852;BME280;48553;50.766;2.900;2024-03-06T06:32:16;101242.19;;;5.50;100.00
60852;BME280;48553;50.766;2.900;2024-03-06T06:35:16;101245.44;;;5.52;100.00
60852;BME280;48553;50.766;2.900;2024-03-06T06:38:17;101243.53;;;5.53;100.00
60852;BME280;48553;50.766;2.900;2024-03-06T06:41:17;101256.84;;;5.54;100.00
60852;BME280;48553;50.766;2.900;2024-03-06T06:44:18;101256.53;;;5.56;100.00
60852;BME280;48553;50.766;2.900;2024-03-06T06:47:18;101256.84;;;5.54;100.00
60852;BME280;48553;50.766;2.900;2024-03-06T06:50:18;101263.59;;;5.57;100.00
60852;BME280;48553;50.766;2.900;2024-03-06T06:53:22;101266.84;;;5.59;100.00
60852;BME280;48553;50.766;2.900;2024-03-06T06:56:22;101272.28;;;5.59;100.00
60852;BME280;48553;50.766;2.900;2024-03-06T06:59:24;101282.31;;;5.58;100.00
60852;BME280;48553;50.766;2.900;2024-03-06T07:02:24;101285.34;;;5.57;100.00
60852;BME280;48553;50.766;2.900;2024-03-06T07:05:25;101291.53;;;5.62;100.00
60852;BME280;48553;50.766;2.900;2024-03-06T07:08:26;101291.84;;;5.61;100.00
60852;BME280;48553;50.766;2.900;2024-03-06T07:11:27;101296.16;;;5.62;100.00
60852;BME280;48553;50.766;2.900;2024-03-06T07:14:27;101291.53;;;5.62;100.00
60852;BME280;48553;50.766;2.900;2024-03-06T07:17:28;101304.03;;;5.63;100.00
60852;BME280;48553;50.766;2.900;2024-03-06T07:20:28;101304.84;;;5.64;100.00
60852;BME280;48553;50.766;2.900;2024-03-06T07:23:29;101315.44;;;5.65;100.00
60852;BME280;48553;50.766;2.900;2024-03-06T07:26:32;101315.66;;;5.69;100.00
60852;BME280;48553;50.766;2.900;2024-03-06T07:29:32;101312.34;;;5.72;100.00
60852;BME280;48553;50.766;2.900;2024-03-06T07:32:33;101318.91;;;5.71;100.00
60852;BME280;48553;50.766;2.900;2024-03-06T07:35:33;101315.91;;;5.73;100.00
60852;BME280;48553;50.766;2.900;2024-03-06T07:38:36;101331.34;;;5.77;100.00
60852;BME280;48553;50.766;2.900;2024-03-06T07:41:36;101334.88;;;5.78;100.00
60852;BME280;48553;50.766;2.900;2024-03-06T07:44:37;101331.28;;;5.82;100.00
60852;BME280;48553;50.766;2.900;2024-03-06T07:47:37;101332.09;;;5.83;100.00
60852;BME280;48553;50.766;2.900;2024-03-06T07:50:38;101334.25;;;5.86;100.00
60852;BME280;48553;50.766;2.900;2024-03-06T07:53:40;101333.94;;;5.88;100.00
60852;BME280;48553;50.766;2.900;2024-03-06T07:56:40;101333.38;;;5.91;100.00
60852;BME280;48553;50.766;2.900;2024-03-06T07:59:40;101332.53;;;5.95;100.00
60852;BME280;48553;50.766;2.900;2024-03-06T08:02:41;101335.41;;;6.04;100.00
60852;BME280;48553;50.766;2.900;2024-03-06T08:05:46;101340.34;;;6.02;100.00
60852;BME280;48553;50.766;2.900;2024-03-06T08:08:46;101345.72;;;6.07;100.00
60852;BME280;48553;50.766;2.900;2024-03-06T08:11:47;101339.69;;;6.10;100.00
60852;BME280;48553;50.766;2.900;2024-03-06T08:14:47;101344.56;;;6.13;100.00
60852;BME280;48553;50.766;2.900;2024-03-06T08:17:49;101348.31;;;6.17;100.00
60852;BME280;48553;50.766;2.900;2024-03-06T08:20:49;101348.28;;;6.22;100.00
60852;BME280;48553;50.766;2.900;2024-03-06T08:23:50;101352.53;;;6.28;100.00
60852;BME280;48553;50.766;2.900;2024-03-06T08:26:51;101361.47;;;6.34;100.00
60852;BME280;48553;50.766;2.900;2024-03-06T08:29:51;101362.50;;;6.38;100.00
60852;BME280;48553;50.766;2.900;2024-03-06T08:32:52;101365.16;;;6.43;100.00
60852;BME280;48553;50.766;2.900;2024-03-06T08:35:52;101370.22;;;6.50;100.00
60852;BME280;48553;50.766;2.900;2024-03-06T08:38:52;101375.59;;;6.55;100.00
60852;BME280;48553;50.766;2.900;2024-03-06T08:41:53;101379.56;;;6.63;100.00
60852;BME280;48553;50.766;2.900;2024-03-06T08:44:53;101367.50;;;6.69;100.00
60852;BME280;48553;50.766;2.900;2024-03-06T08:47:54;101379.88;;;6.80;100.00
60852;BME280;48553;50.766;2.900;2024-03-06T08:50:54;101378.34;;;6.93;100.00
60852;BME280;48553;50.766;2.900;2024-03-06T08:53:55;101385.97;;;7.10;100.00
60852;BME280;48553;50.766;2.900;2024-03-06T08:56:55;101382.06;;;7.16;100.00
60852;BME280;48553;50.766;2.900;2024-03-06T08:59:59;101393.19;;;7.20;100.00
60852;BME280;48553;50.766;2.900;2024-03-06T09:03:00;101395.84;;;7.25;100.00
60852;BME280;48553;50.766;2.900;2024-03-06T09:06:00;101411.50;;;7.33;100.00
60852;BME280;48553;50.766;2.900;2024-03-06T09:09:03;101410.47;;;7.48;100.00
60852;BME280;48553;50.766;2.900;2024-03-06T09:12:07;101417.50;;;7.68;100.00
60852;BME280;48553;50.766;2.900;2024-03-06T09:15:08;101414.78;;;7.82;100.00
60852;BME280;48553;50.766;2.900;2024-03-06T09:18:09;101414.91;;;7.90;100.00
60852;BME280;48553;50.766;2.900;2024-03-06T09:21:09;101411.19;;;8.14;100.00
60852;BME280;48553;50.766;2.900;2024-03-06T09:24:09;101411.47;;;8.26;100.00
60852;BME280;48553;50.766;2.900;2024-03-06T09:27:10;101415.63;;;8.37;100.00
60852;BME280;48553;50.766;2.900;2024-03-06T09:30:11;101417.69;;;8.46;100.00
60852;BME280;48553;50.766;2.900;2024-03-06T09:33:13;101415.72;;;8.60;100.00
60852;BME280;48553;50.766;2.900;2024-03-06T09:36:14;101418.94;;;8.76;100.00
60852;BME280;48553;50.766;2.900;2024-03-06T09:39:15;101421.22;;;8.96;100.00
60852;BME280;48553;50.766;2.900;2024-03-06T09:42:25;101426.72;;;9.19;100.00
60852;BME280;48553;50.766;2.900;2024-03-06T09:45:25;101433.13;;;9.37;100.00
60852;BME280;48553;50.766;2.900;2024-03-06T09:48:26;101430.09;;;9.61;100.00
60852;BME280;48553;50.766;2.900;2024-03-06T09:51:26;101423.75;;;9.83;100.00
60852;BME280;48553;50.766;2.900;2024-03-06T09:54:29;101430.56;;;9.86;100.00
60852;BME280;48553;50.766;2.900;2024-03-06T09:57:30;101431.63;;;9.76;100.00
60852;BME280;48553;50.766;2.900;2024-03-06T10:00:30;101437.38;;;9.97;100.00
60852;BME280;48553;50.766;2.900;2024-03-06T10:03:33;101443.22;;;10.04;100.00
60852;BME280;48553;50.766;2.900;2024-03-06T10:06:34;101440.78;;;10.02;100.00
60852;BME280;48553;50.766;2.900;2024-03-06T10:09:34;101453.78;;;9.97;100.00
60852;BME280;48553;50.766;2.900;2024-03-06T10:12:35;101449.41;;;9.87;100.00
60852;BME280;48553;50.766;2.900;2024-03-06T10:15:35;101455.16;;;9.77;100.00
60852;BME280;48553;50.766;2.900;2024-03-06T10:18:37;101452.53;;;9.72;100.00
60852;BME280;48553;50.766;2.900;2024-03-06T10:21:39;101455.59;;;9.70;100.00
60852;BME280;48553;50.766;2.900;2024-03-06T10:24:39;101455.91;;;9.69;100.00
60852;BME280;48553;50.766;2.900;2024-03-06T10:27:40;101458.31;;;9.70;100.00
60852;BME280;48553;50.766;2.900;2024-03-06T10:30:41;101459.78;;;9.68;100.00
60852;BME280;48553;50.766;2.900;2024-03-06T10:33:42;101453.66;;;9.71;100.00
60852;BME280;48553;50.766;2.900;2024-03-06T10:36:43;101461.16;;;9.88;100.00
60852;BME280;48553;50.766;2.900;2024-03-06T10:39:45;101455.66;;;9.79;100.00
60852;BME280;48553;50.766;2.900;2024-03-06T10:42:47;101462.88;;;9.75;100.00
60852;BME280;48553;50.766;2.900;2024-03-06T10:46:00;101464.97;;;9.78;100.00
60852;BME280;48553;50.766;2.900;2024-03-06T10:49:02;101458.91;;;9.90;100.00
60852;BME280;48553;50.766;2.900;2024-03-06T10:52:04;101459.06;;;9.85;100.00
60852;BME280;48553;50.766;2.900;2024-03-06T10:55:08;101468.56;;;9.87;100.00
60852;BME280;48553;50.766;2.900;2024-03-06T10:58:11;101468.03;;;10.08;100.00
60852;BME280;48553;50.766;2.900;2024-03-06T11:01:11;101470.97;;;10.11;100.00
60852;BME280;48553;50.766;2.900;2024-03-06T11:04:13;101484.31;;;10.13;100.00
60852;BME280;48553;50.766;2.900;2024-03-06T11:07:15;101487.72;;;10.41;100.00
60852;BME280;48553;50.766;2.900;2024-03-06T11:10:30;101484.28;;;10.75;100.00
60852;BME280;48553;50.766;2.900;2024-03-06T11:13:30;101487.91;;;11.02;100.00
60852;BME280;48553;50.766;2.900;2024-03-06T11:26:08;101491.28;;;11.68;100.00
60852;BME280;48553;50.766;2.900;2024-03-06T11:29:10;101488.22;;;11.87;100.00
60852;BME280;48553;50.766;2.900;2024-03-06T11:32:12;101503.53;;;12.06;100.00
60852;BME280;48553;50.766;2.900;2024-03-06T11:35:12;101493.13;;;12.29;100.00
60852;BME280;48553;50.766;2.900;2024-03-06T11:38:16;101491.47;;;12.37;100.00
60852;BME280;48553;50.766;2.900;2024-03-06T11:41:17;101497.34;;;12.26;100.00
60852;BME280;48553;50.766;2.900;2024-03-06T11:44:21;101498.13;;;12.27;100.00
60852;BME280;48553;50.766;2.900;2024-03-06T11:47:23;101491.25;;;12.50;100.00
60852;BME280;48553;50.766;2.900;2024-03-06T11:50:25;101496.50;;;12.64;100.00
60852;BME280;48553;50.766;2.900;2024-03-06T11:53:26;101490.50;;;12.71;100.00
60852;BME280;48553;50.766;2.900;2024-03-06T11:56:28;101497.91;;;12.79;100.00
60852;BME280;48553;50.766;2.900;2024-03-06T11:59:32;101489.72;;;12.91;100.00
60852;BME280;48553;50.766;2.900;2024-03-06T12:02:33;101494.38;;;13.00;100.00
60852;BME280;48553;50.766;2.900;2024-03-06T12:05:33;101494.72;;;13.19;100.00
60852;BME280;48553;50.766;2.900;2024-03-06T12:08:34;101490.44;;;13.30;99.09
60852;BME280;48553;50.766;2.900;2024-03-06T12:11:38;101488.44;;;13.40;98.74
60852;BME280;48553;50.766;2.900;2024-03-06T12:14:38;101488.25;;;13.45;98.42
60852;BME280;48553;50.766;2.900;2024-03-06T12:17:44;101487.41;;;13.23;100.00
60852;BME280;48553;50.766;2.900;2024-03-06T12:20:49;101488.28;;;13.15;100.00
60852;BME280;48553;50.766;2.900;2024-03-06T12:23:50;101489.63;;;13.09;100.00
60852;BME280;48553;50.766;2.900;2024-03-06T12:27:04;101491.09;;;13.06;100.00
60852;BME280;48553;50.766;2.900;2024-03-06T12:30:09;101493.28;;;12.92;100.00
60852;BME280;48553;50.766;2.900;2024-03-06T12:33:16;101494.28;;;12.87;100.00
60852;BME280;48553;50.766;2.900;2024-03-06T12:36:25;101498.22;;;12.78;100.00
60852;BME280;48553;50.766;2.900;2024-03-06T12:39:26;101496.75;;;12.80;99.47
60852;BME280;48553;50.766;2.900;2024-03-06T12:42:26;101498.88;;;13.04;98.60
60852;BME280;48553;50.766;2.900;2024-03-06T12:45:26;101505.28;;;12.87;98.72
60852;BME280;48553;50.766;2.900;2024-03-06T12:48:27;101502.72;;;12.82;98.25
60852;BME280;48553;50.766;2.900;2024-03-06T12:51:30;101499.50;;;12.80;98.05
60852;BME280;48553;50.766;2.900;2024-03-06T12:54:31;101498.41;;;12.72;97.13
60852;BME280;48553;50.766;2.900;2024-03-06T12:57:32;101495.16;;;12.79;98.02
60852;BME280;48553;50.766;2.900;2024-03-06T13:00:33;101497.97;;;12.91;98.74
60852;BME280;48553;50.766;2.900;2024-03-06T13:03:33;101494.81;;;13.10;98.24
60852;BME280;48553;50.766;2.900;2024-03-06T13:06:34;101489.34;;;13.23;98.10
60852;BME280;48553;50.766;2.900;2024-03-06T13:09:34;101504.22;;;13.30;96.32
60852;BME280;48553;50.766;2.900;2024-03-06T13:12:35;101490.28;;;13.35;97.83
60852;BME280;48553;50.766;2.900;2024-03-06T13:15:35;101490.63;;;13.46;98.12
60852;BME280;48553;50.766;2.900;2024-03-06T13:18:37;101496.84;;;13.43;96.84
60852;BME280;48553;50.766;2.900;2024-03-06T13:21:37;101497.03;;;13.38;98.42
60852;BME280;48553;50.766;2.900;2024-03-06T13:24:38;101487.56;;;13.27;99.79
60852;BME280;48553;50.766;2.900;2024-03-06T13:27:38;101497.00;;;13.17;99.83
60852;BME280;48553;50.766;2.900;2024-03-06T13:30:39;101497.13;;;13.21;98.07
60852;BME280;48553;50.766;2.900;2024-03-06T13:33:39;101490.16;;;13.23;100.00
60852;BME280;48553;50.766;2.900;2024-03-06T13:36:40;101494.25;;;13.17;99.83
60852;BME280;48553;50.766;2.900;2024-03-06T13:39:41;101498.19;;;13.07;98.03
60852;BME280;48553;50.766;2.900;2024-03-06T13:42:43;101491.84;;;12.94;99.95
60852;BME280;48553;50.766;2.900;2024-03-06T13:45:50;101490.72;;;12.87;97.58
60852;BME280;48553;50.766;2.900;2024-03-06T13:48:51;101493.06;;;13.06;96.17
60852;BME280;48553;50.766;2.900;2024-03-06T13:51:51;101493.06;;;13.06;96.31
60852;BME280;48553;50.766;2.900;2024-03-06T13:54:51;101490.47;;;13.01;96.18
60852;BME280;48553;50.766;2.900;2024-03-06T13:57:52;101496.97;;;12.96;95.23
60852;BME280;48553;50.766;2.900;2024-03-06T14:00:52;101489.72;;;12.91;96.36
60852;BME280;48553;50.766;2.900;2024-03-06T14:03:53;101491.53;;;12.87;99.04
60852;BME280;48553;50.766;2.900;2024-03-06T14:06:53;101502.59;;;12.79;98.35
60852;BME280;48553;50.766;2.900;2024-03-06T14:09:54;101504.41;;;12.74;97.65
60852;BME280;48553;50.766;2.900;2024-03-06T14:12:57;101501.06;;;12.60;98.50
60852;BME280;48553;50.766;2.900;2024-03-06T14:15:58;101502.03;;;12.56;99.54
60852;BME280;48553;50.766;2.900;2024-03-06T14:19:00;101510.34;;;12.47;100.00
60852;BME280;48553;50.766;2.900;2024-03-06T14:22:01;101504.72;;;12.35;100.00
60852;BME280;48553;50.766;2.900;2024-03-06T14:25:01;101508.34;;;12.26;100.00
60852;BME280;48553;50.766;2.900;2024-03-06T14:28:02;101515.63;;;12.22;100.00
60852;BME280;48553;50.766;2.900;2024-03-06T14:31:03;101522.09;;;12.18;100.00
60852;BME280;48553;50.766;2.900;2024-03-06T14:34:04;101518.38;;;12.14;100.00
60852;BME280;48553;50.766;2.900;2024-03-06T14:37:04;101527.13;;;12.07;100.00
60852;BME280;48553;50.766;2.900;2024-03-06T14:40:05;101520.03;;;12.06;100.00
60852;BME280;48553;50.766;2.900;2024-03-06T14:43:08;101527.94;;;12.07;100.00
60852;BME280;48553;50.766;2.900;2024-03-06T14:46:10;101520.34;;;12.04;100.00
60852;BME280;48553;50.766;2.900;2024-03-06T14:49:10;101531.50;;;11.99;100.00
60852;BME280;48553;50.766;2.900;2024-03-06T14:52:11;101530.38;;;12.00;100.00
60852;BME280;48553;50.766;2.900;2024-03-06T14:55:13;101524.72;;;11.97;100.00
60852;BME280;48553;50.766;2.900;2024-03-06T14:58:13;101522.63;;;11.94;100.00
60852;BME280;48553;50.766;2.900;2024-03-06T15:01:14;101523.09;;;11.96;100.00
60852;BME280;48553;50.766;2.900;2024-03-06T15:04:14;101532.50;;;11.95;100.00
60852;BME280;48553;50.766;2.900;2024-03-06T15:07:15;101536.03;;;11.95;100.00
60852;BME280;48553;50.766;2.900;2024-03-06T15:10:15;101535.06;;;11.91;100.00
60852;BME280;48553;50.766;2.900;2024-03-06T15:13:16;101527.97;;;11.90;100.00
60852;BME280;48553;50.766;2.900;2024-03-06T15:16:19;101533.13;;;11.91;100.00
60852;BME280;48553;50.766;2.900;2024-03-06T15:19:19;101526.03;;;11.90;100.00
60852;BME280;48553;50.766;2.900;2024-03-06T15:22:20;101526.16;;;11.94;100.00
60852;BME280;48553;50.766;2.900;2024-03-06T15:25:20;101528.94;;;11.85;100.00
60852;BME280;48553;50.766;2.900;2024-03-06T15:28:22;101534.25;;;11.82;100.00
60852;BME280;48553;50.766;2.900;2024-03-06T15:31:22;101524.06;;;11.82;100.00
60852;BME280;48553;50.766;2.900;2024-03-06T15:34:22;101536.19;;;11.81;100.00
60852;BME280;48553;50.766;2.900;2024-03-06T15:37:23;101529.56;;;11.82;100.00
60852;BME280;48553;50.766;2.900;2024-03-06T15:40:25;101532.97;;;11.79;100.00
60852;BME280;48553;50.766;2.900;2024-03-06T15:43:26;101528.75;;;11.82;100.00
60852;BME280;48553;50.766;2.900;2024-03-06T15:46:26;101529.88;;;11.81;100.00
60852;BME280;48553;50.766;2.900;2024-03-06T15:49:26;101526.97;;;11.77;100.00
60852;BME280;48553;50.766;2.900;2024-03-06T15:52:27;101527.63;;;11.74;100.00